Malden, Missouri
Current Conditions -  °F | °C
As of 3:53 AM on Saturday 25 Oct 2014 (Local Time) from KPOF Reporting Station
Haze Haze  
Wind Chill: 55°   Ceiling: Unl
Heat Index: 55°   Visibility: 4mi
Dew Point: 52°   Wind: 3mph
Humidity: 89%   Direction: 220°SW
Pressure: 30.03"   Gusts: NA
Location:  36.56°N, 89.97°W
Report Text: KPOF 250853Z AUTO 22003KT 4SM BR CLR 13/11 A3003 RMK AO2 SLP166 T01280111 58003
Loading
Personal Weather Stations






























Interactive Weather Map
Tropical Storm Tracking
New forecast layout! Learn more

10-Day Weather Forecast

Advertisements
Track Severe Weather on mobile